Toyota, Japan
Current Conditions -  °F | °C
As of 3:00 PM on Sunday 26 Oct 2014 (Local Time) from RJGG Reporting Station
Scattered Clouds Scattered Clouds  
Wind Chill: 72°   Ceiling: Unl
Heat Index: 72°   Visibility: 6mi
Dew Point: 59°   Wind: 2mph
Humidity: 64%   Direction: NA
Pressure: 30.03"   Gusts: NA
Location:  35.09°N, 137.16°E
Report Text: RJGG 260600Z VRB02KT 9999 FEW020 SCT/// 22/15 Q1017 BECMG 16005KT
Loading
Personal Weather Stations






























Interactive Weather Map
Tropical Storm Tracking
New forecast layout! Learn more

10-Day Weather Forecast

Advertisements
Track Severe Weather on mobile